Résultats sport de masse course à pied

Résultats : 100 Km entre Terre et Mer - 100 Km

Classement général Classement Sexe Nom, prénom Catégorie Sexe Club Temps
1 1 LE GUERN OLIVIER V1 M TREGUEUX ATHLETISME 03:28:52
2 2 JEANNE Mickaël V1 M GDM ST JAMES 03:28:52
3 3 BERTONE Silvio V1 M ASD GIANNONERUNNING CIRCUIT 03:29:13
4 4 CARDOSO DIAS Daniel SE M CA Villenave d'ornon 03:47:20
5 5 THEPAUT Maurice V2 M 03:51:36
6 6 LE DUC Stephane V1 M B.L.A.T COURIR POUR OWEN 03:55:41
7 7 AUBRY David SE M ECUM CLEDER-SPORT2000 LANDERNEAU 03:57:31
8 8 LEBORGNE FRANCK V1 M FFA SEMELLE DE VENT 04:01:10
9 9 UGUEN Pascal V1 M 04:15:11
10 10 RACINNE GERARD V2 M 04:15:11
11 11 ROGNARD Laurent SE M 04:15:12
12 12 EVALET Philippe V1 M 04:16:59
13 13 SUCRE HUGUES V1 M 04:17:30
14 14 LOZAHIC Yvon V1 M 04:19:47
15 15 PENNEC David V1 M 04:23:29
16 16 STEPHAN YANN SE M PLOEREN ENDURANCE 04:25:10
17 17 DURANT jacky SE M 04:29:49
18 18 LE HIR YVON V2 M COURIR A CHATEAULIN 04:30:47
19 19 MENEZ Jean Pierre V2 M 04:33:34
20 20 GRASSET Alain V3 M 17 SOUPAPES 04:34:29
21 21 COLIN DAVID V1 M 04:35:51
22 22 BONNIN CYRIL V1 M 04:38:48
23 23 GAZZOLA Patrick V1 M 04:39:57
24 24 KOCH Dominique V2 M 04:40:12
25 25 GAUTIER François SE M 04:40:15
26 26 DERRIEN Franck SE M 04:40:49
28 27 BLEAS ALAIN V1 M S/L ES CORSEN 04:43:16
29 28 HELY Benoit SE M 04:43:27
30 29 BRENOT vincent V2 M 04:43:27
31 30 PALLARUELO Angel ES M 04:44:50
32 31 LE BERRE Jean-Jacques V2 M 04:47:17
33 32 LEOST Ronan V1 M Herbauges Athlé 44 04:48:08
34 33 POIVET PATRICK SE M 04:48:21
35 34 ROZEC HERVE V1 M 04:48:53
36 35 LE BRAS Jean-Claude V1 M 04:51:14
37 36 BESSIERE timothée SE M 04:53:09
38 37 FILY Jean-Yves V2 M 04:53:10
39 38 PIALLOUX franck V1 M 04:53:19
40 39 SAVIGNY dave V1 M 04:55:39
41 40 MOREAU Nicolas SE M 04:56:23
43 41 BARRE LAURENT V1 M 04:59:40
44 42 SALLES jean.luc V2 M UFOLEP ORMA 04:59:48
45 43 SIMON MICHEL V2 M ENDURANCE 72 05:00:51
46 44 NICOLAS BRUNO V1 M LES CAVALEURS 05:01:30
47 45 MACOMBE Paul V2 M 05:02:00
48 46 MESSAGER ANTOINE SE M 05:02:43
50 47 BARON Christophe V1 M 05:05:51
51 48 SPECTY JULIEN SE M 05:08:00
52 49 MATHIEU STEPHANE V1 M 05:08:31
53 50 BEAUMONT Thierry V2 M 05:08:36
Première page Page précédente 1 2 3 4